sensor_id;sensor_type;location;lat;lon;timestamp;pressure;altitude;pressure_sealevel;temperature;humidity
30554;BME280;17335;50.720;7.452;2023-04-30T00:00:36;99901.44;;;8.56;100.00
30554;BME280;17335;50.720;7.452;2023-04-30T00:03:03;99895.09;;;8.57;100.00
30554;BME280;17335;50.720;7.452;2023-04-30T00:05:30;99893.84;;;8.50;100.00
30554;BME280;17335;50.720;7.452;2023-04-30T00:07:57;99899.31;;;8.49;100.00
30554;BME280;17335;50.720;7.452;2023-04-30T00:10:23;99893.97;;;8.49;100.00
30554;BME280;17335;50.720;7.452;2023-04-30T00:12:49;99905.78;;;8.46;100.00
30554;BME280;17335;50.720;7.452;2023-04-30T00:15:16;99897.00;;;8.44;100.00
30554;BME280;17335;50.720;7.452;2023-04-30T00:17:43;99905.25;;;8.41;100.00
30554;BME280;17335;50.720;7.452;2023-04-30T00:20:09;99906.19;;;8.40;100.00
30554;BME280;17335;50.720;7.452;2023-04-30T00:22:37;99902.56;;;8.41;100.00
30554;BME280;17335;50.720;7.452;2023-04-30T00:25:04;99902.56;;;8.41;100.00
30554;BME280;17335;50.720;7.452;2023-04-30T00:27:30;99906.00;;;8.43;100.00
30554;BME280;17335;50.720;7.452;2023-04-30T00:29:57;99903.41;;;8.41;100.00
30554;BME280;17335;50.720;7.452;2023-04-30T00:32:24;99910.59;;;8.41;100.00
30554;BME280;17335;50.720;7.452;2023-04-30T00:34:51;99914.44;;;8.37;100.00
30554;BME280;17335;50.720;7.452;2023-04-30T00:37:19;99913.50;;;8.38;100.00
30554;BME280;17335;50.720;7.452;2023-04-30T00:39:45;99910.53;;;8.30;100.00
30554;BME280;17335;50.720;7.452;2023-04-30T00:42:12;99908.09;;;8.26;100.00
30554;BME280;17335;50.720;7.452;2023-04-30T00:44:38;99913.34;;;8.28;100.00
30554;BME280;17335;50.720;7.452;2023-04-30T00:47:05;99913.94;;;8.20;100.00
30554;BME280;17335;50.720;7.452;2023-04-30T00:49:32;99913.06;;;8.20;100.00
30554;BME280;17335;50.720;7.452;2023-04-30T00:51:58;99907.19;;;8.15;100.00
30554;BME280;17335;50.720;7.452;2023-04-30T00:54:25;99920.06;;;8.10;100.00
30554;BME280;17335;50.720;7.452;2023-04-30T00:56:52;99919.91;;;8.00;100.00
30554;BME280;17335;50.720;7.452;2023-04-30T00:59:19;99920.34;;;7.94;100.00
30554;BME280;17335;50.720;7.452;2023-04-30T01:01:46;99920.81;;;7.87;100.00
30554;BME280;17335;50.720;7.452;2023-04-30T01:04:13;99916.88;;;7.80;100.00
30554;BME280;17335;50.720;7.452;2023-04-30T01:06:40;99919.19;;;7.74;100.00
30554;BME280;17335;50.720;7.452;2023-04-30T01:09:09;99916.94;;;7.67;100.00
30554;BME280;17335;50.720;7.452;2023-04-30T01:11:44;99920.28;;;7.58;100.00
30554;BME280;17335;50.720;7.452;2023-04-30T01:14:25;99921.78;;;7.49;100.00
30554;BME280;17335;50.720;7.452;2023-04-30T01:19:41;99918.53;;;7.33;100.00
30554;BME280;17335;50.720;7.452;2023-04-30T01:22:35;99919.06;;;7.25;100.00
30554;BME280;17335;50.720;7.452;2023-04-30T01:28:13;99925.47;;;7.10;100.00
30554;BME280;17335;50.720;7.452;2023-04-30T01:30:40;99921.66;;;7.01;100.00
30554;BME280;17335;50.720;7.452;2023-04-30T01:33:10;99920.59;;;6.91;100.00
30554;BME280;17335;50.720;7.452;2023-04-30T01:40:56;99910.25;;;6.73;100.00
30554;BME280;17335;50.720;7.452;2023-04-30T01:46:08;99904.81;;;6.62;100.00
30554;BME280;17335;50.720;7.452;2023-04-30T01:51:32;99912.56;;;6.52;100.00
30554;BME280;17335;50.720;7.452;2023-04-30T01:54:11;99908.41;;;6.48;100.00
30554;BME280;17335;50.720;7.452;2023-04-30T01:56:55;99909.47;;;6.46;100.00
30554;BME280;17335;50.720;7.452;2023-04-30T01:59:29;99913.22;;;6.43;100.00
30554;BME280;17335;50.720;7.452;2023-04-30T02:01:57;99905.63;;;6.37;100.00
30554;BME280;17335;50.720;7.452;2023-04-30T02:04:24;99906.34;;;6.26;100.00
30554;BME280;17335;50.720;7.452;2023-04-30T02:06:51;99906.00;;;6.18;100.00
30554;BME280;17335;50.720;7.452;2023-04-30T02:09:18;99910.88;;;6.11;100.00
30554;BME280;17335;50.720;7.452;2023-04-30T02:11:44;99905.13;;;6.05;100.00
30554;BME280;17335;50.720;7.452;2023-04-30T02:14:10;99905.13;;;6.05;100.00
30554;BME280;17335;50.720;7.452;2023-04-30T02:16:37;99905.22;;;6.03;100.00
30554;BME280;17335;50.720;7.452;2023-04-30T02:19:03;99900.94;;;6.00;100.00
30554;BME280;17335;50.720;7.452;2023-04-30T02:21:30;99906.47;;;5.97;100.00
30554;BME280;17335;50.720;7.452;2023-04-30T02:23:57;99909.16;;;5.97;100.00
30554;BME280;17335;50.720;7.452;2023-04-30T02:26:23;99910.47;;;5.90;100.00
30554;BME280;17335;50.720;7.452;2023-04-30T02:28:51;99907.47;;;5.82;100.00
30554;BME280;17335;50.720;7.452;2023-04-30T02:31:18;99909.00;;;5.72;100.00
30554;BME280;17335;50.720;7.452;2023-04-30T02:33:44;99905.34;;;5.60;100.00
30554;BME280;17335;50.720;7.452;2023-04-30T02:36:11;99906.13;;;5.48;100.00
30554;BME280;17335;50.720;7.452;2023-04-30T02:38:38;99907.28;;;5.43;100.00
30554;BME280;17335;50.720;7.452;2023-04-30T02:41:04;99917.38;;;5.38;100.00
30554;BME280;17335;50.720;7.452;2023-04-30T02:43:31;99912.16;;;5.37;100.00
30554;BME280;17335;50.720;7.452;2023-04-30T02:45:57;99916.31;;;5.41;100.00
30554;BME280;17335;50.720;7.452;2023-04-30T02:48:24;99915.38;;;5.42;100.00
30554;BME280;17335;50.720;7.452;2023-04-30T02:50:51;99910.78;;;5.44;100.00
30554;BME280;17335;50.720;7.452;2023-04-30T02:53:18;99911.75;;;5.43;100.00
30554;BME280;17335;50.720;7.452;2023-04-30T02:55:44;99909.72;;;5.47;100.00
30554;BME280;17335;50.720;7.452;2023-04-30T02:58:12;99914.03;;;5.49;100.00
30554;BME280;17335;50.720;7.452;2023-04-30T03:00:38;99922.47;;;5.41;100.00
30554;BME280;17335;50.720;7.452;2023-04-30T03:03:05;99924.41;;;5.39;100.00
30554;BME280;17335;50.720;7.452;2023-04-30T03:05:32;99932.47;;;5.38;100.00
30554;BME280;17335;50.720;7.452;2023-04-30T03:07:58;99928.25;;;5.21;100.00
30554;BME280;17335;50.720;7.452;2023-04-30T03:10:25;99925.09;;;5.14;100.00
30554;BME280;17335;50.720;7.452;2023-04-30T03:12:51;99916.75;;;5.06;100.00
30554;BME280;17335;50.720;7.452;2023-04-30T03:15:19;99919.00;;;4.98;100.00
30554;BME280;17335;50.720;7.452;2023-04-30T03:17:46;99915.50;;;4.97;100.00
30554;BME280;17335;50.720;7.452;2023-04-30T03:20:13;99917.50;;;4.94;100.00
30554;BME280;17335;50.720;7.452;2023-04-30T03:22:39;99916.84;;;4.90;100.00
30554;BME280;17335;50.720;7.452;2023-04-30T03:25:07;99914.44;;;4.85;100.00
30554;BME280;17335;50.720;7.452;2023-04-30T03:27:34;99918.94;;;4.85;100.00
30554;BME280;17335;50.720;7.452;2023-04-30T03:30:01;99919.78;;;4.85;100.00
30554;BME280;17335;50.720;7.452;2023-04-30T03:32:27;99917.03;;;4.87;100.00
30554;BME280;17335;50.720;7.452;2023-04-30T03:34:54;99926.59;;;4.89;100.00
30554;BME280;17335;50.720;7.452;2023-04-30T03:37:21;99919.19;;;4.80;100.00
30554;BME280;17335;50.720;7.452;2023-04-30T03:39:47;99920.13;;;4.79;100.00
30554;BME280;17335;50.720;7.452;2023-04-30T03:42:14;99920.34;;;4.76;100.00
30554;BME280;17335;50.720;7.452;2023-04-30T03:44:41;99915.38;;;4.70;100.00
30554;BME280;17335;50.720;7.452;2023-04-30T03:47:09;99919.94;;;4.68;100.00
30554;BME280;17335;50.720;7.452;2023-04-30T03:49:36;99922.44;;;4.71;100.00
30554;BME280;17335;50.720;7.452;2023-04-30T03:52:02;99913.00;;;4.65;100.00
30554;BME280;17335;50.720;7.452;2023-04-30T03:54:30;99918.41;;;4.64;100.00
30554;BME280;17335;50.720;7.452;2023-04-30T03:57:00;99919.38;;;4.63;100.00
30554;BME280;17335;50.720;7.452;2023-04-30T03:59:30;99914.06;;;4.63;100.00
30554;BME280;17335;50.720;7.452;2023-04-30T04:01:59;99922.78;;;4.65;100.00
30554;BME280;17335;50.720;7.452;2023-04-30T04:04:26;99915.56;;;4.67;100.00
30554;BME280;17335;50.720;7.452;2023-04-30T04:06:53;99921.47;;;4.72;100.00
30554;BME280;17335;50.720;7.452;2023-04-30T04:09:19;99913.50;;;4.72;100.00
30554;BME280;17335;50.720;7.452;2023-04-30T04:11:46;99921.47;;;4.72;100.00
30554;BME280;17335;50.720;7.452;2023-04-30T04:14:13;99922.03;;;4.77;100.00
30554;BME280;17335;50.720;7.452;2023-04-30T04:16:39;99926.13;;;4.68;100.00
30554;BME280;17335;50.720;7.452;2023-04-30T04:19:06;99915.09;;;4.60;100.00
30554;BME280;17335;50.720;7.452;2023-04-30T04:21:33;99922.56;;;4.54;100.00
30554;BME280;17335;50.720;7.452;2023-04-30T04:23:59;99918.56;;;4.46;100.00
30554;BME280;17335;50.720;7.452;2023-04-30T04:26:34;99914.41;;;4.42;100.00
30554;BME280;17335;50.720;7.452;2023-04-30T04:29:02;99925.47;;;4.35;100.00
30554;BME280;17335;50.720;7.452;2023-04-30T04:31:34;99923.78;;;4.34;100.00
30554;BME280;17335;50.720;7.452;2023-04-30T04:34:02;99923.88;;;4.32;100.00
30554;BME280;17335;50.720;7.452;2023-04-30T04:36:30;99923.59;;;4.37;100.00
30554;BME280;17335;50.720;7.452;2023-04-30T04:38:56;99917.16;;;4.41;100.00
30554;BME280;17335;50.720;7.452;2023-04-30T04:41:31;99922.97;;;4.47;100.00
30554;BME280;17335;50.720;7.452;2023-04-30T04:44:04;99924.38;;;4.53;100.00
30554;BME280;17335;50.720;7.452;2023-04-30T04:46:31;99915.97;;;4.61;100.00
30554;BME280;17335;50.720;7.452;2023-04-30T04:48:57;99926.03;;;4.70;100.00
30554;BME280;17335;50.720;7.452;2023-04-30T04:51:24;99932.22;;;4.85;100.00
30554;BME280;17335;50.720;7.452;2023-04-30T04:53:52;99929.56;;;5.14;100.00
30554;BME280;17335;50.720;7.452;2023-04-30T04:56:18;99931.75;;;5.21;100.00
30554;BME280;17335;50.720;7.452;2023-04-30T04:58:46;99932.78;;;5.33;100.00
30554;BME280;17335;50.720;7.452;2023-04-30T05:01:12;99928.59;;;5.43;100.00
30554;BME280;17335;50.720;7.452;2023-04-30T05:03:39;99929.97;;;5.63;100.00
30554;BME280;17335;50.720;7.452;2023-04-30T05:06:05;99925.47;;;6.46;100.00
30554;BME280;17335;50.720;7.452;2023-04-30T05:08:33;99919.09;;;7.86;100.00
30554;BME280;17335;50.720;7.452;2023-04-30T05:10:59;99895.38;;;10.53;100.00
30554;BME280;17335;50.720;7.452;2023-04-30T05:13:26;99857.84;;;12.24;100.00
30554;BME280;17335;50.720;7.452;2023-04-30T05:15:53;99846.13;;;13.65;100.00
30554;BME280;17335;50.720;7.452;2023-04-30T05:18:19;99845.13;;;14.82;100.00
30554;BME280;17335;50.720;7.452;2023-04-30T05:20:46;99839.72;;;15.67;100.00
30554;BME280;17335;50.720;7.452;2023-04-30T05:23:13;99835.56;;;16.63;100.00
30554;BME280;17335;50.720;7.452;2023-04-30T05:25:39;99827.84;;;17.48;100.00
30554;BME280;17335;50.720;7.452;2023-04-30T05:28:05;99832.06;;;17.81;97.91
30554;BME280;17335;50.720;7.452;2023-04-30T05:30:32;99831.00;;;17.59;98.11
30554;BME280;17335;50.720;7.452;2023-04-30T05:32:59;99830.81;;;17.30;100.00
30554;BME280;17335;50.720;7.452;2023-04-30T05:35:25;99844.91;;;16.20;100.00
30554;BME280;17335;50.720;7.452;2023-04-30T05:37:52;99841.00;;;15.47;100.00
30554;BME280;17335;50.720;7.452;2023-04-30T05:40:19;99854.47;;;14.43;100.00
30554;BME280;17335;50.720;7.452;2023-04-30T05:42:46;99867.06;;;14.35;100.00
30554;BME280;17335;50.720;7.452;2023-04-30T05:45:12;99868.09;;;13.52;100.00
30554;BME280;17335;50.720;7.452;2023-04-30T05:47:41;99861.88;;;12.76;100.00
30554;BME280;17335;50.720;7.452;2023-04-30T05:50:08;99869.03;;;12.29;100.00
30554;BME280;17335;50.720;7.452;2023-04-30T05:52:35;99875.69;;;11.35;100.00
30554;BME280;17335;50.720;7.452;2023-04-30T05:55:01;99878.53;;;10.72;100.00
30554;BME280;17335;50.720;7.452;2023-04-30T05:57:28;99879.53;;;10.18;100.00
30554;BME280;17335;50.720;7.452;2023-04-30T05:59:54;99888.75;;;9.71;100.00
30554;BME280;17335;50.720;7.452;2023-04-30T06:02:21;99891.25;;;9.41;100.00
30554;BME280;17335;50.720;7.452;2023-04-30T06:04:48;99892.47;;;9.25;100.00
30554;BME280;17335;50.720;7.452;2023-04-30T06:07:15;99894.00;;;8.60;100.00
30554;BME280;17335;50.720;7.452;2023-04-30T06:09:41;99907.25;;;8.26;100.00
30554;BME280;17335;50.720;7.452;2023-04-30T06:12:08;99908.91;;;8.16;100.00
30554;BME280;17335;50.720;7.452;2023-04-30T06:14:35;99910.88;;;7.89;100.00
30554;BME280;17335;50.720;7.452;2023-04-30T06:17:02;99914.50;;;7.88;100.00
30554;BME280;17335;50.720;7.452;2023-04-30T06:19:28;99925.38;;;7.98;100.00
30554;BME280;17335;50.720;7.452;2023-04-30T06:21:55;99930.19;;;8.17;100.00
30554;BME280;17335;50.720;7.452;2023-04-30T06:24:21;99924.38;;;7.99;100.00
30554;BME280;17335;50.720;7.452;2023-04-30T06:26:48;99932.47;;;7.86;100.00
30554;BME280;17335;50.720;7.452;2023-04-30T06:29:14;99931.28;;;7.91;100.00
30554;BME280;17335;50.720;7.452;2023-04-30T06:31:41;99935.25;;;8.09;100.00
30554;BME280;17335;50.720;7.452;2023-04-30T06:34:07;99927.06;;;8.23;100.00
30554;BME280;17335;50.720;7.452;2023-04-30T06:36:34;99935.34;;;8.32;100.00
30554;BME280;17335;50.720;7.452;2023-04-30T06:39:01;99933.88;;;8.27;100.00
30554;BME280;17335;50.720;7.452;2023-04-30T06:41:28;99934.13;;;8.24;100.00
30554;BME280;17335;50.720;7.452;2023-04-30T06:43:55;99934.63;;;8.30;100.00
30554;BME280;17335;50.720;7.452;2023-04-30T06:46:22;99929.78;;;8.35;100.00
30554;BME280;17335;50.720;7.452;2023-04-30T06:48:48;99935.13;;;8.35;100.00
30554;BME280;17335;50.720;7.452;2023-04-30T06:51:15;99927.19;;;8.46;100.00
30554;BME280;17335;50.720;7.452;2023-04-30T06:53:42;99928.88;;;8.47;100.00
30554;BME280;17335;50.720;7.452;2023-04-30T06:56:08;99918.56;;;8.54;100.00
30554;BME280;17335;50.720;7.452;2023-04-30T06:58:35;99918.38;;;8.68;100.00
30554;BME280;17335;50.720;7.452;2023-04-30T07:01:02;99918.50;;;8.89;100.00
30554;BME280;17335;50.720;7.452;2023-04-30T07:03:29;99912.91;;;9.04;100.00
30554;BME280;17335;50.720;7.452;2023-04-30T07:05:56;99905.00;;;9.13;100.00
30554;BME280;17335;50.720;7.452;2023-04-30T07:08:23;99908.28;;;9.28;100.00
30554;BME280;17335;50.720;7.452;2023-04-30T07:10:49;99904.25;;;9.45;100.00
30554;BME280;17335;50.720;7.452;2023-04-30T07:13:16;99908.13;;;9.64;100.00
30554;BME280;17335;50.720;7.452;2023-04-30T07:15:42;99908.41;;;9.93;100.00
30554;BME280;17335;50.720;7.452;2023-04-30T07:18:09;99914.72;;;10.03;100.00
30554;BME280;17335;50.720;7.452;2023-04-30T07:20:36;99903.16;;;10.03;100.00
30554;BME280;17335;50.720;7.452;2023-04-30T07:23:02;99899.69;;;10.12;100.00
30554;BME280;17335;50.720;7.452;2023-04-30T07:25:29;99900.50;;;10.24;100.00
30554;BME280;17335;50.720;7.452;2023-04-30T07:27:56;99906.81;;;10.23;100.00
30554;BME280;17335;50.720;7.452;2023-04-30T07:30:23;99909.13;;;10.39;100.00
30554;BME280;17335;50.720;7.452;2023-04-30T07:32:50;99901.88;;;10.50;100.00
30554;BME280;17335;50.720;7.452;2023-04-30T07:35:17;99901.13;;;10.48;100.00
30554;BME280;17335;50.720;7.452;2023-04-30T07:37:44;99894.72;;;10.61;100.00
30554;BME280;17335;50.720;7.452;2023-04-30T07:40:11;99888.44;;;10.72;100.00
30554;BME280;17335;50.720;7.452;2023-04-30T07:42:42;99892.72;;;10.84;100.00
30554;BME280;17335;50.720;7.452;2023-04-30T07:45:10;99888.13;;;10.96;100.00
30554;BME280;17335;50.720;7.452;2023-04-30T07:47:38;99884.38;;;11.08;100.00
30554;BME280;17335;50.720;7.452;2023-04-30T07:50:05;99879.88;;;11.18;100.00
30554;BME280;17335;50.720;7.452;2023-04-30T07:52:33;99880.63;;;11.30;100.00
30554;BME280;17335;50.720;7.452;2023-04-30T07:54:59;99871.59;;;11.31;100.00
30554;BME280;17335;50.720;7.452;2023-04-30T07:57:26;99870.94;;;11.49;100.00
30554;BME280;17335;50.720;7.452;2023-04-30T07:59:53;99874.94;;;11.64;100.00
30554;BME280;17335;50.720;7.452;2023-04-30T08:02:20;99876.09;;;11.81;100.00
30554;BME280;17335;50.720;7.452;2023-04-30T08:04:47;99881.47;;;11.81;100.00
30554;BME280;17335;50.720;7.452;2023-04-30T08:07:14;99880.91;;;11.87;100.00
30554;BME280;17335;50.720;7.452;2023-04-30T08:09:43;99879.25;;;12.06;100.00
30554;BME280;17335;50.720;7.452;2023-04-30T08:12:10;99879.53;;;12.12;100.00
30554;BME280;17335;50.720;7.452;2023-04-30T08:14:36;99878.69;;;12.31;100.00
30554;BME280;17335;50.720;7.452;2023-04-30T08:17:03;99871.88;;;12.47;100.00
30554;BME280;17335;50.720;7.452;2023-04-30T08:19:30;99869.31;;;12.45;100.00
30554;BME280;17335;50.720;7.452;2023-04-30T08:21:57;99859.66;;;12.52;100.00
30554;BME280;17335;50.720;7.452;2023-04-30T08:24:24;99864.56;;;12.67;100.00
30554;BME280;17335;50.720;7.452;2023-04-30T08:26:50;99849.97;;;12.79;100.00
30554;BME280;17335;50.720;7.452;2023-04-30T08:29:19;99859.16;;;12.86;100.00
30554;BME280;17335;50.720;7.452;2023-04-30T08:31:46;99845.94;;;12.93;100.00
30554;BME280;17335;50.720;7.452;2023-04-30T08:34:13;99841.25;;;13.23;100.00
30554;BME280;17335;50.720;7.452;2023-04-30T08:36:39;99849.59;;;13.39;100.00
30554;BME280;17335;50.720;7.452;2023-04-30T08:39:06;99842.28;;;13.49;100.00
30554;BME280;17335;50.720;7.452;2023-04-30T08:41:35;99838.44;;;13.70;100.00
30554;BME280;17335;50.720;7.452;2023-04-30T08:44:02;99841.84;;;13.72;100.00
30554;BME280;17335;50.720;7.452;2023-04-30T08:46:34;99827.88;;;13.77;100.00
30554;BME280;17335;50.720;7.452;2023-04-30T08:49:02;99830.44;;;13.78;100.00
30554;BME280;17335;50.720;7.452;2023-04-30T08:51:32;99829.97;;;13.83;100.00
30554;BME280;17335;50.720;7.452;2023-04-30T08:53:59;99827.44;;;13.99;100.00
30554;BME280;17335;50.720;7.452;2023-04-30T08:56:26;99824.13;;;14.05;100.00
30554;BME280;17335;50.720;7.452;2023-04-30T08:58:52;99821.63;;;14.12;100.00
30554;BME280;17335;50.720;7.452;2023-04-30T09:01:19;99829.44;;;14.15;100.00
30554;BME280;17335;50.720;7.452;2023-04-30T09:03:47;99823.34;;;14.13;100.00
30554;BME280;17335;50.720;7.452;2023-04-30T09:06:16;99820.16;;;14.36;100.00
30554;BME280;17335;50.720;7.452;2023-04-30T09:08:48;99823.06;;;14.42;100.00
30554;BME280;17335;50.720;7.452;2023-04-30T09:11:23;99831.16;;;14.60;92.44
30554;BME280;17335;50.720;7.452;2023-04-30T09:13:51;99824.09;;;14.68;96.16
30554;BME280;17335;50.720;7.452;2023-04-30T09:16:20;99818.69;;;14.68;85.40
30554;BME280;17335;50.720;7.452;2023-04-30T09:18:48;99822.13;;;14.78;84.57
30554;BME280;17335;50.720;7.452;2023-04-30T09:21:15;99813.59;;;14.99;90.12
30554;BME280;17335;50.720;7.452;2023-04-30T09:24:11;99808.91;;;15.01;79.74
30554;BME280;17335;50.720;7.452;2023-04-30T09:26:37;99801.47;;;15.03;79.79
30554;BME280;17335;50.720;7.452;2023-04-30T09:29:04;99811.34;;;15.21;77.22
30554;BME280;17335;50.720;7.452;2023-04-30T09:31:36;99802.88;;;15.15;75.64
30554;BME280;17335;50.720;7.452;2023-04-30T09:34:04;99796.66;;;15.31;71.52
30554;BME280;17335;50.720;7.452;2023-04-30T09:36:32;99797.06;;;15.45;76.38
30554;BME280;17335;50.720;7.452;2023-04-30T09:39:08;99798.94;;;15.52;77.59
30554;BME280;17335;50.720;7.452;2023-04-30T09:41:40;99785.75;;;15.66;72.37
30554;BME280;17335;50.720;7.452;2023-04-30T09:44:07;99791.88;;;15.68;69.17
30554;BME280;17335;50.720;7.452;2023-04-30T09:46:51;99787.13;;;15.70;66.72
30554;BME280;17335;50.720;7.452;2023-04-30T09:49:18;99796.59;;;15.74;62.62
30554;BME280;17335;50.720;7.452;2023-04-30T09:51:55;99789.44;;;15.48;62.66
30554;BME280;17335;50.720;7.452;2023-04-30T09:54:25;99787.75;;;15.55;63.02
30554;BME280;17335;50.720;7.452;2023-04-30T09:56:54;99782.22;;;15.73;69.42
30554;BME280;17335;50.720;7.452;2023-04-30T09:59:32;99775.09;;;15.64;72.84
30554;BME280;17335;50.720;7.452;2023-04-30T10:02:02;99776.66;;;15.91;67.02
30554;BME280;17335;50.720;7.452;2023-04-30T10:04:32;99776.69;;;16.08;62.92
30554;BME280;17335;50.720;7.452;2023-04-30T10:07:09;99771.94;;;16.10;64.49
30554;BME280;17335;50.720;7.452;2023-04-30T10:09:48;99765.31;;;16.21;69.18
30554;BME280;17335;50.720;7.452;2023-04-30T10:12:21;99769.72;;;16.30;76.55
30554;BME280;17335;50.720;7.452;2023-04-30T10:15:05;99763.75;;;16.51;70.53
30554;BME280;17335;50.720;7.452;2023-04-30T10:17:33;99759.56;;;16.40;68.55
30554;BME280;17335;50.720;7.452;2023-04-30T10:20:08;99752.06;;;16.50;65.43
30554;BME280;17335;50.720;7.452;2023-04-30T10:22:35;99744.81;;;16.35;62.98
30554;BME280;17335;50.720;7.452;2023-04-30T10:25:02;99744.28;;;16.56;65.56
30554;BME280;17335;50.720;7.452;2023-04-30T10:27:29;99742.31;;;16.81;62.12
30554;BME280;17335;50.720;7.452;2023-04-30T10:29:56;99741.75;;;17.02;61.93
30554;BME280;17335;50.720;7.452;2023-04-30T10:32:37;99732.84;;;17.16;62.13
30554;BME280;17335;50.720;7.452;2023-04-30T10:35:16;99732.81;;;17.24;61.93
30554;BME280;17335;50.720;7.452;2023-04-30T10:37:47;99734.13;;;17.05;59.05
30554;BME280;17335;50.720;7.452;2023-04-30T10:40:17;99729.97;;;17.18;58.97
30554;BME280;17335;50.720;7.452;2023-04-30T10:42:48;99727.56;;;17.46;69.24
30554;BME280;17335;50.720;7.452;2023-04-30T10:45:15;99728.44;;;17.70;62.17
30554;BME280;17335;50.720;7.452;2023-04-30T10:47:43;99730.31;;;17.92;59.84
30554;BME280;17335;50.720;7.452;2023-04-30T10:50:11;99721.00;;;17.63;55.15
30554;BME280;17335;50.720;7.452;2023-04-30T10:52:38;99724.06;;;17.84;55.67
30554;BME280;17335;50.720;7.452;2023-04-30T10:55:06;99717.28;;;17.65;58.12
30554;BME280;17335;50.720;7.452;2023-04-30T10:57:41;99716.97;;;17.59;56.87
30554;BME280;17335;50.720;7.452;2023-04-30T11:02:39;99708.63;;;18.07;56.49
30554;BME280;17335;50.720;7.452;2023-04-30T11:05:08;99703.84;;;18.09;54.97
30554;BME280;17335;50.720;7.452;2023-04-30T11:07:34;99693.88;;;18.02;57.65
30554;BME280;17335;50.720;7.452;2023-04-30T11:10:02;99706.59;;;17.63;55.30
30554;BME280;17335;50.720;7.452;2023-04-30T11:12:29;99702.53;;;17.82;55.94
30554;BME280;17335;50.720;7.452;2023-04-30T11:15:11;99694.28;;;17.98;53.44
30554;BME280;17335;50.720;7.452;2023-04-30T11:17:37;99691.50;;;18.36;54.48
30554;BME280;17335;50.720;7.452;2023-04-30T11:20:05;99683.00;;;18.40;50.75
30554;BME280;17335;50.720;7.452;2023-04-30T11:22:32;99675.00;;;18.53;50.41
30554;BME280;17335;50.720;7.452;2023-04-30T11:25:09;99672.31;;;19.04;58.06
30554;BME280;17335;50.720;7.452;2023-04-30T11:27:37;99673.16;;;19.41;54.51
30554;BME280;17335;50.720;7.452;2023-04-30T11:30:13;99666.31;;;19.09;51.46
30554;BME280;17335;50.720;7.452;2023-04-30T11:32:43;99673.97;;;18.84;56.78
30554;BME280;17335;50.720;7.452;2023-04-30T11:35:17;99678.56;;;18.39;53.76
30554;BME280;17335;50.720;7.452;2023-04-30T11:37:44;99676.03;;;17.84;54.82
30554;BME280;17335;50.720;7.452;2023-04-30T11:40:13;99667.69;;;18.09;55.04
30554;BME280;17335;50.720;7.452;2023-04-30T11:42:41;99667.56;;;18.62;52.27
30554;BME280;17335;50.720;7.452;2023-04-30T11:45:15;99655.47;;;18.94;53.32
30554;BME280;17335;50.720;7.452;2023-04-30T11:47:50;99653.00;;;18.99;50.97
30554;BME280;17335;50.720;7.452;2023-04-30T11:50:22;99641.81;;;19.52;56.85
30554;BME280;17335;50.720;7.452;2023-04-30T11:52:59;99649.84;;;19.60;49.95
30554;BME280;17335;50.720;7.452;2023-04-30T11:55:30;99645.72;;;19.43;52.23
30554;BME280;17335;50.720;7.452;2023-04-30T11:57:57;99653.22;;;18.68;53.58
30554;BME280;17335;50.720;7.452;2023-04-30T12:00:27;99652.44;;;17.85;58.08
30554;BME280;17335;50.720;7.452;2023-04-30T12:02:54;99646.75;;;17.56;63.59
30554;BME280;17335;50.720;7.452;2023-04-30T12:05:25;99657.75;;;17.40;61.36
30554;BME280;17335;50.720;7.452;2023-04-30T12:07:59;99649.44;;;17.41;62.74
30554;BME280;17335;50.720;7.452;2023-04-30T12:10:26;99651.22;;;17.49;67.25
30554;BME280;17335;50.720;7.452;2023-04-30T12:12:52;99654.88;;;17.41;64.29
30554;BME280;17335;50.720;7.452;2023-04-30T12:15:24;99642.53;;;17.31;58.51
30554;BME280;17335;50.720;7.452;2023-04-30T12:17:55;99638.19;;;17.68;56.44
30554;BME280;17335;50.720;7.452;2023-04-30T12:20:26;99634.72;;;18.42;60.39
30554;BME280;17335;50.720;7.452;2023-04-30T12:22:53;99626.97;;;18.90;55.89
30554;BME280;17335;50.720;7.452;2023-04-30T12:25:23;99622.13;;;19.07;52.46
30554;BME280;17335;50.720;7.452;2023-04-30T12:27:53;99626.06;;;19.04;50.94
30554;BME280;17335;50.720;7.452;2023-04-30T12:30:24;99630.84;;;18.51;52.14
30554;BME280;17335;50.720;7.452;2023-04-30T12:32:52;99633.41;;;18.23;54.04
30554;BME280;17335;50.720;7.452;2023-04-30T12:35:21;99617.28;;;17.91;56.22
30554;BME280;17335;50.720;7.452;2023-04-30T12:37:51;99627.16;;;17.84;56.20
30554;BME280;17335;50.720;7.452;2023-04-30T12:40:19;99627.94;;;17.93;56.50
30554;BME280;17335;50.720;7.452;2023-04-30T12:42:46;99621.59;;;18.01;56.20
30554;BME280;17335;50.720;7.452;2023-04-30T12:48:09;99616.31;;;19.10;56.69
30554;BME280;17335;50.720;7.452;2023-04-30T12:50:35;99612.56;;;19.61;50.43
30554;BME280;17335;50.720;7.452;2023-04-30T12:53:04;99611.66;;;18.89;50.55
30554;BME280;17335;50.720;7.452;2023-04-30T12:55:30;99610.72;;;19.40;55.59
30554;BME280;17335;50.720;7.452;2023-04-30T12:58:12;99604.44;;;19.89;52.28
30554;BME280;17335;50.720;7.452;2023-04-30T13:03:11;99594.44;;;20.38;48.39
30554;BME280;17335;50.720;7.452;2023-04-30T13:05:44;99588.13;;;20.79;52.99
30554;BME280;17335;50.720;7.452;2023-04-30T13:08:12;99581.06;;;21.11;50.75
30554;BME280;17335;50.720;7.452;2023-04-30T13:10:38;99586.66;;;20.35;47.62
30554;BME280;17335;50.720;7.452;2023-04-30T13:13:05;99584.09;;;19.63;49.75
30554;BME280;17335;50.720;7.452;2023-04-30T13:15:32;99589.09;;;19.10;54.17
30554;BME280;17335;50.720;7.452;2023-04-30T13:17:58;99591.97;;;18.72;51.79
30554;BME280;17335;50.720;7.452;2023-04-30T13:20:25;99586.34;;;18.37;52.43
30554;BME280;17335;50.720;7.452;2023-04-30T13:22:52;99585.69;;;18.20;52.97
30554;BME280;17335;50.720;7.452;2023-04-30T13:25:19;99587.28;;;17.99;53.40
30554;BME280;17335;50.720;7.452;2023-04-30T13:27:46;99583.75;;;17.99;53.48